createdAt,value
2024-05-09T12:26:23.324Z,94131.16
2024-05-09T12:28:50.140Z,94123.38
2024-05-09T12:31:16.928Z,94125.34
2024-05-09T12:33:43.901Z,94122.44
2024-05-09T12:36:11.116Z,94123.50
2024-05-09T12:38:37.885Z,94138.81
2024-05-09T12:41:04.936Z,94132.81
2024-05-09T12:43:31.837Z,94126.34
2024-05-09T12:45:58.866Z,94129.41
2024-05-09T12:48:25.923Z,94124.63
2024-05-09T12:50:55.121Z,94124.97
2024-05-09T12:53:22.006Z,94128.13
2024-05-09T12:55:56.560Z,94131.28
2024-05-09T12:58:27.314Z,94121.50
2024-05-09T13:00:54.414Z,94127.44
2024-05-09T13:03:21.788Z,94127.09
2024-05-09T13:05:50.102Z,94121.41
2024-05-09T13:08:17.064Z,94116.97
2024-05-09T13:10:44.235Z,94116.34
2024-05-09T13:13:11.498Z,94118.66
2024-05-09T13:15:38.957Z,94120.31
2024-05-09T13:18:06.693Z,94116.09
2024-05-09T13:20:35.628Z,94124.22
2024-05-09T13:23:05.373Z,94114.59
2024-05-09T13:25:34.577Z,94123.25
2024-05-09T13:28:01.939Z,94123.19
2024-05-09T13:30:38.258Z,94120.94
2024-05-09T13:33:09.071Z,94125.97
2024-05-09T13:35:36.317Z,94128.25
2024-05-09T13:38:04.264Z,94121.19
2024-05-09T13:40:34.615Z,94124.41
2024-05-09T13:43:06.285Z,94122.00
2024-05-09T13:45:33.857Z,94130.97
2024-05-09T13:48:02.528Z,94126.53
2024-05-09T13:50:35.883Z,94135.19
2024-05-09T13:53:08.114Z,94133.28
2024-05-09T13:55:38.722Z,94124.38
2024-05-09T13:58:06.612Z,94123.25
2024-05-09T14:00:44.039Z,94139.06
2024-05-09T14:03:16.031Z,94129.81
2024-05-09T14:05:43.680Z,94130.59
2024-05-09T14:08:11.158Z,94137.91
2024-05-09T14:10:44.346Z,94133.25
2024-05-09T14:13:12.143Z,94135.94
2024-05-09T14:15:39.098Z,94148.69
2024-05-09T14:18:08.079Z,94142.44
2024-05-09T14:20:36.295Z,94143.59
2024-05-09T14:23:03.010Z,94142.72
2024-05-09T14:25:32.161Z,94152.31
2024-05-09T14:27:59.591Z,94154.06
2024-05-09T14:30:34.701Z,94155.13
2024-05-09T14:33:06.095Z,94157.84
2024-05-09T14:35:33.751Z,94158.72
2024-05-09T14:38:00.679Z,94153.00
2024-05-09T14:40:37.209Z,94160.63
2024-05-09T14:43:10.311Z,94158.16
2024-05-09T14:45:37.253Z,94161.88
2024-05-09T14:48:04.493Z,94156.38
2024-05-09T14:50:36.730Z,94163.47
2024-05-09T14:53:07.084Z,94165.94
2024-05-09T14:55:37.504Z,94166.97
2024-05-09T14:58:11.981Z,94167.16
2024-05-09T15:00:46.086Z,94159.81
2024-05-09T15:03:17.478Z,94160.63
2024-05-09T15:05:45.193Z,94164.78
2024-05-09T15:08:12.248Z,94159.88
2024-05-09T15:10:39.240Z,94161.47
2024-05-09T15:13:08.108Z,94164.78
2024-05-09T15:15:36.972Z,94169.41
2024-05-09T15:18:05.161Z,94166.28
2024-05-09T15:20:36.036Z,94159.81
2024-05-09T15:23:06.213Z,94170.06
2024-05-09T15:25:34.049Z,94170.69
2024-05-09T15:28:00.964Z,94166.16
2024-05-09T15:30:33.382Z,94165.09
2024-05-09T15:33:04.079Z,94167.09
2024-05-09T15:35:34.347Z,94174.78
2024-05-09T15:38:03.350Z,94172.09
2024-05-09T15:40:37.728Z,94167.63
2024-05-09T15:43:08.237Z,94170.88
2024-05-09T15:45:35.937Z,94177.53
2024-05-09T15:48:03.770Z,94179.06
2024-05-09T15:50:37.762Z,94178.75
2024-05-09T15:53:09.453Z,94181.59
2024-05-09T15:55:37.142Z,94179.34
2024-05-09T15:58:04.733Z,94181.69
2024-05-09T16:00:37.973Z,94188.16
2024-05-09T16:03:09.110Z,94188.97
2024-05-09T16:05:36.798Z,94201.13
2024-05-09T16:08:04.632Z,94197.09
2024-05-09T16:10:33.355Z,94192.59
2024-05-09T16:13:02.384Z,94190.88
2024-05-09T16:15:29.861Z,94193.22
2024-05-09T16:17:59.619Z,94194.66
2024-05-09T16:20:34.947Z,94194.56
2024-05-09T16:23:07.852Z,94195.06
2024-05-09T16:25:34.836Z,94202.69
2024-05-09T16:28:03.692Z,94198.13
2024-05-09T16:30:35.401Z,94197.28
2024-05-09T16:33:05.134Z,94200.22
2024-05-09T16:35:32.828Z,94200.56
2024-05-09T16:38:02.896Z,94201.50
2024-05-09T16:40:36.965Z,94206.88
2024-05-09T16:43:07.763Z,94205.28
2024-05-09T16:45:34.996Z,94208.59
2024-05-09T16:48:05.624Z,94211.88
2024-05-09T16:50:34.602Z,94207.63
2024-05-09T16:53:03.956Z,94215.50
2024-05-09T16:55:31.374Z,94215.69
2024-05-09T16:57:58.672Z,94222.44
2024-05-09T17:00:35.769Z,94223.63
2024-05-09T17:03:09.213Z,94222.56
2024-05-09T17:05:36.851Z,94221.41
2024-05-09T17:08:04.237Z,94228.19
2024-05-09T17:10:33.806Z,94234.97
2024-05-09T17:13:06.908Z,94227.63
2024-05-09T17:15:35.503Z,94231.75
2024-05-09T17:18:03.214Z,94232.25
2024-05-09T17:20:34.483Z,94234.41
2024-05-09T17:23:04.942Z,94231.84
2024-05-09T17:25:32.657Z,94239.78
2024-05-09T17:28:06.493Z,94239.59
2024-05-09T17:30:39.414Z,94247.16
2024-05-09T17:33:09.617Z,94240.44
2024-05-09T17:35:38.022Z,94248.00
2024-05-09T17:38:05.987Z,94253.38
2024-05-09T17:40:35.969Z,94251.75
2024-05-09T17:43:05.453Z,94251.69
2024-05-09T17:45:33.210Z,94253.91
2024-05-09T17:48:00.990Z,94253.22
2024-05-09T17:50:35.114Z,94261.75
2024-05-09T17:53:05.442Z,94261.22
2024-05-09T17:55:32.620Z,94262.94
2024-05-09T17:57:59.730Z,94257.75
2024-05-09T18:02:56.438Z,94264.53
2024-05-09T18:05:23.524Z,94271.06
2024-05-09T18:07:50.436Z,94266.56
2024-05-09T18:10:25.228Z,94263.09
2024-05-09T18:12:56.612Z,94272.25
2024-05-09T18:15:23.417Z,94266.25
2024-05-09T18:17:51.256Z,94276.28
2024-05-09T18:20:28.619Z,94276.97
2024-05-09T18:23:04.591Z,94277.56
2024-05-09T18:25:31.358Z,94275.06
2024-05-09T18:27:58.325Z,94286.31
2024-05-09T18:30:32.111Z,94276.59
2024-05-09T18:33:01.967Z,94291.59
2024-05-09T18:35:28.961Z,94292.03
2024-05-09T18:37:55.687Z,94290.66
2024-05-09T18:40:31.232Z,94291.97
2024-05-09T18:43:02.400Z,94298.56
2024-05-09T18:45:30.208Z,94301.50
2024-05-09T18:47:57.200Z,94303.94
2024-05-09T18:50:32.403Z,94300.28
2024-05-09T18:53:06.045Z,94299.81
2024-05-09T18:55:32.976Z,94308.25
2024-05-09T18:58:00.054Z,94306.63
2024-05-09T19:00:34.027Z,94322.19
2024-05-09T19:03:06.177Z,94314.09
2024-05-09T19:05:36.092Z,94320.63
2024-05-09T19:08:03.464Z,94323.22
2024-05-09T19:10:34.345Z,94328.22
2024-05-09T19:13:06.700Z,94335.53
2024-05-09T19:15:37.803Z,94325.97
2024-05-09T19:18:05.360Z,94332.69
2024-05-09T19:20:34.916Z,94331.84
2024-05-09T19:23:03.310Z,94332.31
2024-05-09T19:25:30.301Z,94332.00
2024-05-09T19:27:57.158Z,94341.72
2024-05-09T19:30:32.907Z,94336.53
2024-05-09T19:33:05.961Z,94338.16
2024-05-09T19:35:33.210Z,94339.06
2024-05-09T19:38:00.270Z,94340.03
2024-05-09T19:40:31.730Z,94338.03
2024-05-09T19:43:02.319Z,94336.78
2024-05-09T19:45:29.945Z,94338.03
2024-05-09T19:47:57.312Z,94344.41
2024-05-09T19:50:32.423Z,94345.81
2024-05-09T19:53:07.347Z,94339.47
2024-05-09T19:55:34.728Z,94338.34
2024-05-09T19:58:04.915Z,94335.44
2024-05-09T20:00:38.831Z,94340.34
2024-05-09T20:03:08.612Z,94341.84
2024-05-09T20:05:36.432Z,94334.34
2024-05-09T20:08:04.106Z,94338.34
2024-05-09T20:10:33.313Z,94332.66
2024-05-09T20:13:02.720Z,94342.06
2024-05-09T20:15:29.966Z,94353.19
2024-05-09T20:17:57.085Z,94345.97
2024-05-09T20:20:32.921Z,94341.91
2024-05-09T20:23:08.930Z,94344.34
2024-05-09T20:25:35.887Z,94347.59
2024-05-09T20:28:03.016Z,94355.50
2024-05-09T20:30:32.908Z,94345.22
2024-05-09T20:33:05.659Z,94348.25
2024-05-09T20:35:33.938Z,94345.78
2024-05-09T20:38:02.355Z,94353.81
2024-05-09T20:40:34.190Z,94348.91
2024-05-09T20:43:04.601Z,94354.88
2024-05-09T20:45:31.713Z,94347.97
2024-05-09T20:47:58.653Z,94358.59
2024-05-09T20:50:35.753Z,94349.41
2024-05-09T20:53:08.547Z,94359.16
2024-05-09T20:55:35.415Z,94352.34
2024-05-09T20:58:02.247Z,94351.03
2024-05-09T21:00:35.547Z,94351.25
2024-05-09T21:03:07.422Z,94348.38
2024-05-09T21:05:35.268Z,94351.47
2024-05-09T21:08:02.888Z,94351.84
2024-05-09T21:10:32.401Z,94348.47
2024-05-09T21:13:00.542Z,94339.25
2024-05-09T21:15:27.715Z,94345.78
2024-05-09T21:17:54.566Z,94344.84
2024-05-09T21:20:28.283Z,94342.84
2024-05-09T21:22:58.338Z,94351.28
2024-05-09T21:25:25.186Z,94337.06
2024-05-09T21:27:52.203Z,94351.28
2024-05-09T21:30:31.214Z,94347.19
2024-05-09T21:33:06.012Z,94351.63
2024-05-09T21:35:32.910Z,94353.72
2024-05-09T21:37:59.603Z,94351.41
2024-05-09T21:40:33.454Z,94345.09
2024-05-09T21:43:02.484Z,94351.97
2024-05-09T21:45:29.602Z,94355.81
2024-05-09T21:47:56.448Z,94347.88
2024-05-09T21:50:28.667Z,94337.66
2024-05-09T21:53:03.648Z,94343.81
2024-05-09T21:55:30.421Z,94340.72
2024-05-09T21:57:57.278Z,94340.91
2024-05-09T22:00:32.260Z,94335.44
2024-05-09T22:03:03.776Z,94334.78
2024-05-09T22:05:31.148Z,94331.22
2024-05-09T22:07:58.056Z,94337.06
2024-05-09T22:10:30.745Z,94333.97
2024-05-09T22:13:01.458Z,94337.03
2024-05-09T22:15:28.752Z,94333.06
2024-05-09T22:17:57.303Z,94322.38
2024-05-09T22:20:33.630Z,94326.81
2024-05-09T22:23:04.577Z,94321.06
2024-05-09T22:25:32.314Z,94320.22
2024-05-09T22:28:00.204Z,94320.78
2024-05-09T22:30:35.568Z,94330.78
2024-05-09T22:33:07.132Z,94329.81
2024-05-09T22:35:34.212Z,94314.81
2024-05-09T22:38:00.977Z,94323.91
2024-05-09T22:40:38.517Z,94314.16
2024-05-09T22:43:13.789Z,94310.28
2024-05-09T22:45:41.027Z,94314.75
2024-05-09T22:48:08.866Z,94319.41
2024-05-09T22:50:36.026Z,94303.59
2024-05-09T22:53:02.792Z,94309.56
2024-05-09T22:55:30.004Z,94308.28
2024-05-09T22:57:56.876Z,94302.91
2024-05-09T23:02:53.702Z,94304.44
2024-05-09T23:05:20.783Z,94301.09
2024-05-09T23:07:47.584Z,94302.94
2024-05-09T23:10:21.223Z,94302.97
2024-05-09T23:12:54.891Z,94309.66
2024-05-09T23:15:21.844Z,94310.59
2024-05-09T23:17:48.708Z,94302.25
2024-05-09T23:20:21.688Z,94302.88
2024-05-09T23:22:55.930Z,94296.63
2024-05-09T23:25:22.715Z,94300.72
2024-05-09T23:27:49.623Z,94304.13
2024-05-09T23:30:28.276Z,94289.09
2024-05-09T23:33:01.306Z,94291.88
2024-05-09T23:35:28.143Z,94294.72
2024-05-09T23:37:54.948Z,94295.09
2024-05-09T23:40:23.452Z,94297.13
2024-05-09T23:42:50.820Z,94292.38
2024-05-09T23:45:17.636Z,94294.03
2024-05-09T23:47:44.434Z,94290.00
2024-05-09T23:50:16.904Z,94297.09
2024-05-09T23:52:50.431Z,94291.38
2024-05-09T23:55:17.360Z,94290.00
2024-05-09T23:57:44.295Z,94285.72
